createdAt,value
2023-02-17T00:01:14.167Z,10.45
2023-02-17T00:03:43.796Z,10.41
2023-02-17T00:06:12.745Z,10.41
2023-02-17T00:08:40.721Z,10.48
2023-02-17T00:11:08.725Z,10.48
2023-02-17T00:13:36.773Z,10.53
2023-02-17T00:16:08.589Z,10.63
2023-02-17T00:18:36.776Z,10.59
2023-02-17T00:21:15.378Z,10.57
2023-02-17T00:23:43.451Z,10.56
2023-02-17T00:26:12.211Z,10.46
2023-02-17T00:28:40.563Z,10.51
2023-02-17T00:31:10.168Z,10.48
2023-02-17T00:33:38.898Z,10.55
2023-02-17T00:36:08.493Z,10.50
2023-02-17T00:38:37.739Z,10.49
2023-02-17T00:41:06.136Z,10.44
2023-02-17T00:43:34.152Z,10.42
2023-02-17T00:46:04.454Z,10.46
2023-02-17T00:48:32.978Z,10.52
2023-02-17T00:51:00.904Z,10.52
2023-02-17T00:53:28.962Z,10.48
2023-02-17T00:55:58.220Z,10.56
2023-02-17T00:58:26.329Z,10.60
2023-02-17T01:00:54.443Z,10.64
2023-02-17T01:03:22.262Z,10.66
2023-02-17T01:05:50.625Z,10.69
2023-02-17T01:08:19.629Z,10.75
2023-02-17T01:10:48.900Z,10.78
2023-02-17T01:13:18.965Z,10.71
2023-02-17T01:15:51.193Z,10.70
2023-02-17T01:18:20.156Z,10.62
2023-02-17T01:20:48.320Z,10.62
2023-02-17T01:23:16.354Z,10.59
2023-02-17T01:25:47.118Z,10.65
2023-02-17T01:28:17.901Z,10.60
2023-02-17T01:30:47.346Z,10.63
2023-02-17T01:33:15.220Z,10.63
2023-02-17T01:35:43.424Z,10.63
2023-02-17T01:38:11.351Z,10.68
2023-02-17T01:40:39.419Z,10.63
2023-02-17T01:43:08.067Z,10.65
2023-02-17T01:45:42.724Z,10.66
2023-02-17T01:48:15.527Z,10.64
2023-02-17T01:50:47.081Z,10.72
2023-02-17T01:53:20.935Z,10.75
2023-02-17T01:55:49.993Z,10.63
2023-02-17T01:58:22.827Z,10.63
2023-02-17T02:00:52.737Z,10.54
2023-02-17T02:03:22.330Z,10.61
2023-02-17T02:05:50.770Z,10.63
2023-02-17T02:08:19.068Z,10.58
2023-02-17T02:10:46.901Z,10.59
2023-02-17T02:13:14.904Z,10.60
2023-02-17T02:15:48.914Z,10.61
2023-02-17T02:18:32.660Z,10.65
2023-02-17T02:21:40.906Z,10.77
2023-02-17T02:24:20.128Z,10.73
2023-02-17T02:27:29.419Z,10.73
2023-02-17T02:30:16.071Z,10.73
2023-02-17T02:32:59.756Z,10.71
2023-02-17T02:35:33.918Z,10.76
2023-02-17T02:38:07.632Z,10.84
2023-02-17T02:40:42.657Z,10.78
2023-02-17T02:43:11.027Z,10.90
2023-02-17T02:45:38.837Z,10.78
2023-02-17T02:48:08.318Z,10.74
2023-02-17T02:50:55.262Z,10.88
2023-02-17T02:53:41.731Z,11.01
2023-02-17T02:56:21.318Z,11.03
2023-02-17T02:58:56.100Z,11.06
2023-02-17T03:01:34.008Z,11.08
2023-02-17T03:04:10.204Z,11.12
2023-02-17T03:06:45.223Z,11.14
2023-02-17T03:09:18.897Z,11.01
2023-02-17T03:11:48.423Z,11.06
2023-02-17T03:14:21.567Z,11.08
2023-02-17T03:16:50.931Z,11.03
2023-02-17T03:19:23.277Z,11.17
2023-02-17T03:21:53.647Z,11.20
2023-02-17T03:24:21.645Z,11.18
2023-02-17T03:26:49.897Z,11.16
2023-02-17T03:29:17.723Z,11.13
2023-02-17T03:31:45.772Z,11.03
2023-02-17T03:34:13.727Z,11.08
2023-02-17T03:36:42.942Z,11.13
2023-02-17T03:39:10.744Z,11.22
2023-02-17T03:41:38.740Z,11.26
2023-02-17T03:44:06.620Z,11.27
2023-02-17T03:46:34.479Z,11.32
2023-02-17T03:49:02.454Z,11.20
2023-02-17T03:51:30.257Z,11.22
2023-02-17T03:53:59.880Z,11.31
2023-02-17T03:56:27.806Z,11.27
2023-02-17T03:58:55.701Z,11.21
2023-02-17T04:01:23.811Z,11.07
2023-02-17T04:03:52.082Z,11.15
2023-02-17T04:06:20.255Z,11.19
2023-02-17T04:08:48.075Z,11.20
2023-02-17T04:11:17.498Z,11.25
2023-02-17T04:13:45.376Z,11.17
2023-02-17T04:16:13.266Z,11.28
2023-02-17T04:18:41.438Z,11.37
2023-02-17T04:21:09.358Z,11.44
2023-02-17T04:23:38.398Z,11.39
2023-02-17T04:26:08.741Z,11.46
2023-02-17T04:28:39.397Z,11.46
2023-02-17T04:31:07.456Z,11.32
2023-02-17T04:33:35.829Z,11.36
2023-02-17T04:36:03.879Z,11.42
2023-02-17T04:38:33.536Z,11.46
2023-02-17T04:41:02.165Z,11.50
2023-02-17T04:43:30.592Z,11.40
2023-02-17T04:45:59.930Z,11.44
2023-02-17T04:48:28.044Z,11.44
2023-02-17T04:50:56.056Z,11.50
2023-02-17T04:53:23.970Z,11.50
2023-02-17T04:55:53.823Z,11.53
2023-02-17T04:58:21.763Z,11.59
2023-02-17T05:00:50.845Z,11.57
2023-02-17T05:03:20.704Z,11.63
2023-02-17T05:05:48.675Z,11.62
2023-02-17T05:08:16.517Z,11.64
2023-02-17T05:10:44.669Z,11.71
2023-02-17T05:13:12.616Z,11.74
2023-02-17T05:15:40.759Z,11.82
2023-02-17T05:18:08.660Z,11.76
2023-02-17T05:20:38.004Z,11.59
2023-02-17T05:23:06.041Z,11.49
2023-02-17T05:25:34.017Z,11.50
2023-02-17T05:28:01.834Z,11.58
2023-02-17T05:30:29.855Z,11.63
2023-02-17T05:32:57.798Z,11.69
2023-02-17T05:35:25.728Z,11.67
2023-02-17T05:37:54.961Z,11.67
2023-02-17T05:40:23.011Z,11.63
2023-02-17T05:42:50.927Z,11.67
2023-02-17T05:45:19.002Z,11.66
2023-02-17T05:47:47.157Z,11.54
2023-02-17T05:50:15.069Z,11.58
2023-02-17T05:52:42.934Z,11.52
2023-02-17T05:55:12.288Z,11.48
2023-02-17T05:57:40.226Z,11.57
2023-02-17T06:00:09.555Z,11.64
2023-02-17T06:02:37.480Z,11.62
2023-02-17T06:05:05.509Z,11.52
2023-02-17T06:07:33.336Z,11.60
2023-02-17T06:10:01.418Z,11.59
2023-02-17T06:12:30.658Z,11.54
2023-02-17T06:14:58.458Z,11.59
2023-02-17T06:17:26.359Z,11.59
2023-02-17T06:19:54.327Z,11.62
2023-02-17T06:22:22.216Z,11.66
2023-02-17T06:24:50.137Z,11.67
2023-02-17T06:27:18.101Z,11.67
2023-02-17T06:29:47.360Z,11.62
2023-02-17T06:32:15.329Z,11.52
2023-02-17T06:34:43.321Z,11.45
2023-02-17T06:37:11.233Z,11.44
2023-02-17T06:39:39.222Z,11.44
2023-02-17T06:42:07.113Z,11.42
2023-02-17T06:44:34.978Z,11.50
2023-02-17T06:47:04.540Z,11.53
2023-02-17T06:49:32.366Z,11.45
2023-02-17T06:52:00.182Z,11.51
2023-02-17T06:54:28.676Z,11.43
2023-02-17T06:56:56.510Z,11.39
2023-02-17T06:59:24.381Z,11.34
2023-02-17T07:01:52.581Z,11.33
2023-02-17T07:04:21.909Z,11.44
2023-02-17T07:06:49.801Z,11.50
2023-02-17T07:09:17.806Z,11.59
2023-02-17T07:11:45.613Z,11.59
2023-02-17T07:14:13.427Z,11.62
2023-02-17T07:16:41.397Z,11.63
2023-02-17T07:19:09.275Z,11.52
2023-02-17T07:21:38.614Z,11.57
2023-02-17T07:24:07.061Z,11.54
2023-02-17T07:26:37.108Z,11.55
2023-02-17T07:29:06.094Z,11.42
2023-02-17T07:31:36.449Z,11.52
2023-02-17T07:34:05.264Z,11.58
2023-02-17T07:36:33.362Z,11.52
2023-02-17T07:39:03.770Z,11.55
2023-02-17T07:41:33.609Z,11.56
2023-02-17T07:44:01.976Z,11.51
2023-02-17T07:46:29.897Z,11.62
2023-02-17T07:48:58.263Z,11.70
2023-02-17T07:51:26.632Z,11.70
2023-02-17T07:53:55.216Z,11.64
2023-02-17T07:56:24.751Z,11.69
2023-02-17T07:58:52.715Z,11.73
2023-02-17T08:01:23.091Z,11.69
2023-02-17T08:03:51.557Z,11.54
2023-02-17T08:06:24.405Z,11.62
2023-02-17T08:09:11.390Z,11.65
2023-02-17T08:11:59.086Z,11.62
2023-02-17T08:14:29.391Z,11.63
2023-02-17T08:16:57.769Z,11.65
2023-02-17T08:19:31.740Z,11.52
2023-02-17T08:22:07.697Z,11.43
2023-02-17T08:24:35.740Z,11.53
2023-02-17T08:27:06.464Z,11.59
2023-02-17T08:29:34.631Z,11.52
2023-02-17T08:32:02.720Z,11.50
2023-02-17T08:34:33.687Z,11.57
2023-02-17T08:37:02.372Z,11.67
2023-02-17T08:39:30.418Z,11.67
2023-02-17T08:41:58.548Z,11.67
2023-02-17T08:44:28.361Z,11.70
2023-02-17T08:46:56.288Z,11.62
2023-02-17T08:49:27.040Z,11.71
2023-02-17T08:51:57.710Z,11.63
2023-02-17T08:54:26.054Z,11.71
2023-02-17T08:56:54.585Z,11.80
2023-02-17T08:59:22.961Z,11.73
2023-02-17T09:01:52.463Z,11.74
2023-02-17T09:04:20.955Z,11.60
2023-02-17T09:06:51.413Z,11.61
2023-02-17T09:09:25.813Z,11.62
2023-02-17T09:11:55.462Z,11.62
2023-02-17T09:14:24.632Z,11.62
2023-02-17T09:16:56.472Z,11.58
2023-02-17T09:19:25.566Z,11.61
2023-02-17T09:21:55.556Z,11.51
2023-02-17T09:24:23.555Z,11.54
2023-02-17T09:26:52.511Z,11.54
2023-02-17T09:29:20.458Z,11.61
2023-02-17T09:31:48.536Z,11.56
2023-02-17T09:34:18.011Z,11.43
2023-02-17T09:36:46.248Z,11.40
2023-02-17T09:39:15.887Z,11.55
2023-02-17T09:41:48.309Z,11.59
2023-02-17T09:44:21.932Z,11.59
2023-02-17T09:47:02.468Z,11.66
2023-02-17T09:49:38.802Z,11.76
2023-02-17T09:52:11.856Z,11.72
2023-02-17T09:54:47.999Z,11.71
2023-02-17T09:57:20.841Z,11.57
2023-02-17T09:59:54.226Z,11.53
2023-02-17T10:02:28.872Z,11.63
2023-02-17T10:05:04.030Z,11.66
2023-02-17T10:07:36.247Z,11.72
2023-02-17T10:10:09.613Z,11.61
2023-02-17T10:12:41.622Z,11.62
2023-02-17T10:15:16.067Z,11.66
2023-02-17T10:17:52.086Z,11.70
2023-02-17T10:20:27.106Z,11.75
2023-02-17T10:23:01.168Z,11.74
2023-02-17T10:25:53.667Z,11.69
2023-02-17T10:28:36.507Z,11.74
2023-02-17T10:31:06.743Z,11.82
2023-02-17T10:33:38.911Z,11.87
2023-02-17T10:36:26.291Z,11.89
2023-02-17T10:38:57.390Z,11.79
2023-02-17T10:41:34.750Z,11.78
2023-02-17T10:44:08.211Z,11.81
2023-02-17T10:46:36.357Z,11.80
2023-02-17T10:49:07.140Z,11.90
2023-02-17T10:51:37.200Z,11.89
2023-02-17T10:54:15.424Z,11.78
2023-02-17T10:56:47.725Z,11.94
2023-02-17T10:59:23.456Z,11.83
2023-02-17T11:01:52.395Z,11.96
2023-02-17T11:04:20.262Z,11.97
2023-02-17T11:06:53.196Z,11.97
2023-02-17T11:09:28.552Z,11.92
2023-02-17T11:12:00.899Z,12.06
2023-02-17T11:14:30.675Z,11.99
2023-02-17T11:17:01.643Z,12.08
2023-02-17T11:19:33.911Z,12.13
2023-02-17T11:22:05.723Z,12.15
2023-02-17T11:24:35.740Z,12.18
2023-02-17T11:27:06.330Z,12.20
2023-02-17T11:29:34.356Z,12.14
2023-02-17T11:32:04.902Z,12.12
2023-02-17T11:34:36.391Z,12.04
2023-02-17T11:37:21.899Z,12.10
2023-02-17T11:39:53.439Z,12.06
2023-02-17T11:42:23.523Z,12.15
2023-02-17T11:44:52.451Z,12.06
2023-02-17T11:47:33.468Z,12.09
2023-02-17T11:50:18.579Z,12.19
2023-02-17T11:53:02.257Z,12.18
2023-02-17T11:55:39.422Z,12.21
2023-02-17T11:58:24.773Z,12.20
2023-02-17T12:01:01.269Z,12.27
2023-02-17T12:04:12.435Z,12.18
2023-02-17T12:06:47.556Z,12.18
2023-02-17T12:09:26.877Z,12.12
2023-02-17T12:12:00.847Z,12.16
2023-02-17T12:14:55.085Z,12.19
2023-02-17T12:17:31.068Z,12.23
2023-02-17T12:20:09.410Z,12.40
2023-02-17T12:22:45.248Z,12.42
2023-02-17T12:25:34.272Z,12.45
2023-02-17T12:28:16.227Z,12.37
2023-02-17T12:31:00.138Z,12.36
2023-02-17T12:33:52.598Z,12.50
2023-02-17T12:36:21.015Z,12.54
2023-02-17T12:38:54.423Z,12.44
2023-02-17T12:41:28.736Z,12.47
2023-02-17T12:44:01.049Z,12.49
2023-02-17T12:46:33.737Z,12.45
2023-02-17T12:49:07.718Z,12.46
2023-02-17T12:51:40.498Z,12.42
2023-02-17T12:54:16.844Z,12.35
2023-02-17T12:56:57.027Z,12.42
2023-02-17T12:59:33.124Z,12.41
2023-02-17T13:02:03.871Z,12.41
2023-02-17T13:04:33.522Z,12.36
2023-02-17T13:07:11.034Z,12.45
2023-02-17T13:09:41.994Z,12.45
2023-02-17T13:12:18.728Z,12.40
2023-02-17T13:14:47.921Z,12.35
2023-02-17T13:17:27.977Z,12.34
2023-02-17T13:20:25.635Z,12.37
2023-02-17T13:23:06.124Z,12.37
2023-02-17T13:25:37.631Z,12.39
2023-02-17T13:28:20.592Z,12.37
2023-02-17T13:30:52.484Z,12.39
2023-02-17T13:33:41.312Z,12.43
2023-02-17T13:36:16.671Z,12.52
2023-02-17T13:39:02.099Z,12.60
2023-02-17T13:41:37.069Z,12.51
2023-02-17T13:44:27.511Z,12.61
2023-02-17T13:47:00.456Z,12.62
2023-02-17T13:49:35.535Z,12.63
2023-02-17T13:52:14.007Z,12.73
2023-02-17T13:54:51.908Z,12.78
2023-02-17T13:57:28.279Z,12.76
2023-02-17T14:00:09.377Z,12.73
2023-02-17T14:02:39.732Z,12.68
2023-02-17T14:05:19.222Z,12.69
2023-02-17T14:07:48.331Z,12.68
2023-02-17T14:10:21.653Z,12.72
2023-02-17T14:12:50.134Z,12.67
2023-02-17T14:15:21.377Z,12.75
2023-02-17T14:17:49.347Z,12.83
2023-02-17T14:20:30.050Z,12.91
2023-02-17T14:23:04.539Z,12.78
2023-02-17T14:25:35.277Z,12.81
2023-02-17T14:28:03.474Z,12.86
2023-02-17T14:30:36.017Z,12.96
2023-02-17T14:33:06.252Z,13.00
2023-02-17T14:35:35.751Z,12.84
2023-02-17T14:38:20.005Z,12.85
2023-02-17T14:40:48.126Z,12.76
2023-02-17T14:43:19.277Z,12.65
2023-02-17T14:45:52.626Z,12.67
2023-02-17T14:48:20.833Z,12.51
2023-02-17T14:50:51.462Z,12.51
2023-02-17T14:53:26.054Z,12.33
2023-02-17T14:56:05.818Z,12.36
2023-02-17T14:58:37.071Z,12.36
2023-02-17T15:01:13.325Z,12.44
2023-02-17T15:03:43.866Z,12.55
2023-02-17T15:06:15.211Z,12.40
2023-02-17T15:08:45.575Z,12.38
2023-02-17T15:11:22.104Z,12.42
2023-02-17T15:13:50.219Z,12.20
2023-02-17T15:16:19.723Z,12.10
2023-02-17T15:18:47.659Z,12.09
2023-02-17T15:21:21.794Z,12.01
2023-02-17T15:23:49.905Z,11.98
2023-02-17T15:26:18.342Z,12.01
2023-02-17T15:28:47.465Z,11.96
2023-02-17T15:31:16.958Z,11.91
2023-02-17T15:33:46.492Z,11.96
2023-02-17T15:36:18.453Z,11.89
2023-02-17T15:38:46.302Z,11.96
2023-02-17T15:41:21.172Z,11.75
2023-02-17T15:43:53.270Z,11.64
2023-02-17T15:46:22.493Z,11.58
2023-02-17T15:48:52.398Z,11.58
2023-02-17T15:51:21.445Z,11.53
2023-02-17T15:54:00.884Z,11.52
2023-02-17T15:56:44.334Z,11.43
2023-02-17T15:59:19.755Z,11.46
2023-02-17T16:01:47.793Z,11.37
2023-02-17T16:04:24.132Z,11.22
2023-02-17T16:06:52.110Z,11.22
2023-02-17T16:09:21.628Z,11.14
2023-02-17T16:11:57.499Z,11.12
2023-02-17T16:14:36.546Z,11.06
2023-02-17T16:17:05.749Z,10.99
2023-02-17T16:19:34.951Z,11.04
2023-02-17T16:22:21.237Z,10.90
2023-02-17T16:25:02.236Z,10.82
2023-02-17T16:28:12.152Z,10.66
2023-02-17T16:31:39.921Z,10.64
2023-02-17T16:34:23.320Z,10.57
2023-02-17T16:37:14.576Z,10.53
2023-02-17T16:39:53.143Z,10.45
2023-02-17T16:43:07.993Z,10.38
2023-02-17T16:46:10.713Z,10.31
2023-02-17T16:49:05.556Z,10.34
2023-02-17T16:55:48.892Z,10.15
2023-02-17T16:58:56.343Z,10.07
2023-02-17T17:01:48.380Z,10.08
2023-02-17T17:04:54.814Z,10.09
2023-02-17T17:10:42.037Z,10.08
2023-02-17T17:13:10.373Z,10.00
2023-02-17T17:15:39.205Z,9.95
2023-02-17T17:18:09.448Z,10.05
2023-02-17T17:20:41.750Z,9.97
2023-02-17T17:23:12.854Z,9.99
2023-02-17T17:25:45.129Z,9.95
2023-02-17T17:28:14.676Z,9.85
2023-02-17T17:30:42.538Z,9.77
2023-02-17T17:33:10.512Z,9.77
2023-02-17T17:35:38.804Z,9.81
2023-02-17T17:38:07.263Z,9.84
2023-02-17T17:40:48.463Z,9.83
2023-02-17T17:43:18.759Z,9.75
2023-02-17T17:45:47.052Z,9.86
2023-02-17T17:48:16.268Z,9.75
2023-02-17T17:50:50.884Z,9.74
2023-02-17T17:53:18.764Z,9.76
2023-02-17T17:55:48.223Z,9.74
2023-02-17T17:58:17.567Z,9.64
2023-02-17T18:00:45.494Z,9.64
2023-02-17T18:03:13.645Z,9.68
2023-02-17T18:05:41.522Z,9.70
2023-02-17T18:08:10.341Z,9.58
2023-02-17T18:10:39.511Z,9.55
2023-02-17T18:13:09.678Z,9.60
2023-02-17T18:15:39.459Z,9.59
2023-02-17T18:18:10.643Z,9.52
2023-02-17T18:20:38.570Z,9.57
2023-02-17T18:23:07.011Z,9.55
2023-02-17T18:25:34.935Z,9.57
2023-02-17T18:28:02.997Z,9.53
2023-02-17T18:30:31.013Z,9.48
2023-02-17T18:33:00.218Z,9.44
2023-02-17T18:35:28.283Z,9.45
2023-02-17T18:37:56.252Z,9.46
2023-02-17T18:40:25.652Z,9.41
2023-02-17T18:42:53.464Z,9.40
2023-02-17T18:45:21.742Z,9.45
2023-02-17T18:47:49.605Z,9.48
2023-02-17T18:50:18.991Z,9.45
2023-02-17T18:52:47.035Z,9.50
2023-02-17T18:55:15.042Z,9.45
2023-02-17T18:57:44.774Z,9.45
2023-02-17T19:00:15.153Z,9.38
2023-02-17T19:02:43.236Z,9.37
2023-02-17T19:05:12.124Z,9.33
2023-02-17T19:07:41.410Z,9.25
2023-02-17T19:10:10.672Z,9.29
2023-02-17T19:12:38.959Z,9.30
2023-02-17T19:15:07.516Z,9.27
2023-02-17T19:17:35.702Z,9.26
2023-02-17T19:20:12.169Z,9.24
2023-02-17T19:22:41.406Z,9.25
2023-02-17T19:25:10.001Z,9.20
2023-02-17T19:27:40.179Z,9.27
2023-02-17T19:30:10.699Z,9.22
2023-02-17T19:32:47.203Z,9.24
2023-02-17T19:35:18.285Z,9.26
2023-02-17T19:37:50.945Z,9.20
2023-02-17T19:40:19.087Z,9.23
2023-02-17T19:42:47.597Z,9.25
2023-02-17T19:45:15.535Z,9.25
2023-02-17T19:47:43.364Z,9.20
2023-02-17T19:50:11.477Z,9.29
2023-02-17T19:52:39.467Z,9.25
2023-02-17T19:55:10.134Z,9.29
2023-02-17T19:57:37.980Z,9.35
2023-02-17T20:00:07.610Z,9.41
2023-02-17T20:02:35.674Z,9.47
2023-02-17T20:05:04.390Z,9.56
2023-02-17T20:07:32.812Z,9.52
2023-02-17T20:10:00.832Z,9.55
2023-02-17T20:12:30.046Z,9.52
2023-02-17T20:14:58.641Z,9.52
2023-02-17T20:17:26.633Z,9.48
2023-02-17T20:19:54.497Z,9.52
2023-02-17T20:22:22.631Z,9.56
2023-02-17T20:24:50.642Z,9.47
2023-02-17T20:27:18.510Z,9.53
2023-02-17T20:29:47.775Z,9.45
2023-02-17T20:32:15.737Z,9.38
2023-02-17T20:34:43.653Z,9.39
2023-02-17T20:37:11.587Z,9.33
2023-02-17T20:39:40.252Z,9.34
2023-02-17T20:42:08.091Z,9.36
2023-02-17T20:44:36.408Z,9.36
2023-02-17T20:47:06.142Z,9.39
2023-02-17T20:49:34.004Z,9.39
2023-02-17T20:52:01.804Z,9.32
2023-02-17T20:54:29.720Z,9.33
2023-02-17T20:57:01.039Z,9.36
2023-02-17T20:59:29.042Z,9.35
2023-02-17T21:01:56.876Z,9.38
2023-02-17T21:04:26.081Z,9.35
2023-02-17T21:06:53.989Z,9.40
2023-02-17T21:09:22.013Z,9.29
2023-02-17T21:11:50.296Z,9.25
2023-02-17T21:14:18.381Z,9.27
2023-02-17T21:16:46.504Z,9.28
2023-02-17T21:19:14.445Z,9.17
2023-02-17T21:21:43.755Z,9.09
2023-02-17T21:24:12.052Z,9.06
2023-02-17T21:26:40.130Z,9.09
2023-02-17T21:29:08.219Z,9.04
2023-02-17T21:31:41.984Z,8.97
2023-02-17T21:34:10.149Z,8.99
2023-02-17T21:36:38.038Z,8.97
2023-02-17T21:39:07.386Z,8.96
2023-02-17T21:41:35.422Z,8.91
2023-02-17T21:44:21.069Z,8.90
2023-02-17T21:46:49.040Z,8.84
2023-02-17T21:49:16.942Z,8.80
2023-02-17T21:51:45.179Z,8.77
2023-02-17T21:54:14.545Z,8.81
2023-02-17T21:56:42.599Z,8.78
2023-02-17T21:59:10.762Z,8.73
2023-02-17T22:01:39.058Z,8.65
2023-02-17T22:04:07.352Z,8.66
2023-02-17T22:06:37.164Z,8.72
2023-02-17T22:09:07.033Z,8.80
2023-02-17T22:11:39.222Z,8.83
2023-02-17T22:14:10.153Z,8.62
2023-02-17T22:16:38.857Z,8.60
2023-02-17T22:19:08.656Z,8.53
2023-02-17T22:21:36.553Z,8.53
2023-02-17T22:24:04.669Z,8.60
2023-02-17T22:26:32.718Z,8.63
2023-02-17T22:29:02.101Z,8.54
2023-02-17T22:31:31.687Z,8.55
2023-02-17T22:34:01.471Z,8.53
2023-02-17T22:36:33.125Z,8.54
2023-02-17T22:39:01.196Z,8.60
2023-02-17T22:41:29.535Z,8.60
2023-02-17T22:43:58.005Z,8.55
2023-02-17T22:46:27.594Z,8.54
2023-02-17T22:48:57.773Z,8.50
2023-02-17T22:51:27.865Z,8.55
2023-02-17T22:53:56.101Z,8.53
2023-02-17T22:56:24.363Z,8.57
2023-02-17T22:59:00.706Z,8.54
2023-02-17T23:01:32.036Z,8.42
2023-02-17T23:03:59.943Z,8.48
2023-02-17T23:06:30.896Z,8.48
2023-02-17T23:08:59.687Z,8.47
2023-02-17T23:11:47.294Z,8.52
2023-02-17T23:14:42.132Z,8.51
2023-02-17T23:17:12.852Z,8.48
2023-02-17T23:19:42.064Z,8.40
2023-02-17T23:22:11.781Z,8.46
2023-02-17T23:24:39.667Z,8.46
2023-02-17T23:27:08.335Z,8.48
2023-02-17T23:29:38.010Z,8.51
2023-02-17T23:32:06.372Z,8.51
2023-02-17T23:34:36.012Z,8.42
2023-02-17T23:37:04.280Z,8.45
2023-02-17T23:39:32.396Z,8.42
2023-02-17T23:42:00.405Z,8.50
2023-02-17T23:44:28.352Z,8.47
2023-02-17T23:46:56.221Z,8.49
2023-02-17T23:49:24.301Z,8.47
2023-02-17T23:51:53.604Z,8.45
2023-02-17T23:54:21.471Z,8.51
2023-02-17T23:56:49.535Z,8.51
2023-02-17T23:59:17.609Z,8.59
